Time;durP1;ratioP1;P1;durP2;ratioP2;P2;SDS_P1;SDS_P2;PMS_P1;PMS_P2;Temp;Humidity;BMP_temperature;BMP_pressure;BME280_temperature;BME280_humidity;BME280_pressure;Samples;Min_cycle;Max_cycle;Signal;HPM_P1;HPM_P2
2023/01/31 00:01:07;;;;;;;18.63;1.83;;;;;;;21.07;58.74;99282.31;7315121;19;130382;-38
2023/01/31 00:03:32;;;;;;;28.08;2.72;;;;;;;21.05;58.78;99286.88;7314333;19;129600;-40
2023/01/31 00:05:57;;;;;;;30.65;2.92;;;;;;;21.05;59.19;99284.25;7312970;19;129868;-38
2023/01/31 00:08:23;;;;;;;22.10;1.73;;;;;;;21.02;58.44;99281.94;7315975;19;129700;-40
2023/01/31 00:10:48;;;;;;;40.23;3.60;;;;;;;21.02;58.86;99281.94;7314253;19;129927;-38
2023/01/31 00:13:13;;;;;;;31.83;2.80;;;;;;;21.00;58.48;99289.09;7314247;19;129339;-39
2023/01/31 00:15:39;;;;;;;27.48;2.70;;;;;;;21.01;58.99;99290.72;7312048;19;129156;-39
2023/01/31 00:18:04;;;;;;;70.40;6.68;;;;;;;20.99;58.54;99297.88;7310448;19;129999;-38
2023/01/31 00:20:30;;;;;;;32.20;3.40;;;;;;;21.00;58.79;99304.75;7313950;19;129931;-39
2023/01/31 00:22:55;;;;;;;45.55;3.63;;;;;;;20.97;59.18;99296.34;7312896;19;129856;-37
2023/01/31 00:25:20;;;;;;;47.25;5.00;;;;;;;21.12;58.25;99294.97;7309804;19;128916;-37
2023/01/31 00:27:46;;;;;;;35.58;3.15;;;;;;;21.07;58.75;99299.78;7313167;19;129610;-41
2023/01/31 00:30:11;;;;;;;28.23;2.65;;;;;;;21.07;58.69;99297.16;7310866;19;130429;-40
2023/01/31 00:32:37;;;;;;;45.33;4.43;;;;;;;21.10;58.96;99304.72;7313317;19;129239;-38
2023/01/31 00:35:02;;;;;;;82.10;8.10;;;;;;;21.06;57.83;99298.94;7311062;19;129188;-37
2023/01/31 00:37:27;;;;;;;36.40;3.63;;;;;;;21.03;58.51;99295.78;7312165;19;130339;-40
2023/01/31 00:39:53;;;;;;;31.30;2.70;;;;;;;21.04;58.61;99300.88;7313464;19;129647;-38
2023/01/31 00:42:18;;;;;;;46.00;4.28;;;;;;;21.06;58.25;99312.03;7310423;19;130226;-38
2023/01/31 00:44:43;;;;;;;34.43;3.53;;;;;;;21.02;58.30;99307.22;7313938;19;129287;-37
2023/01/31 00:47:09;;;;;;;32.37;3.33;;;;;;;21.04;59.01;99310.53;7308315;19;130047;-39
2023/01/31 00:49:34;;;;;;;22.33;2.42;;;;;;;21.02;58.48;99304.63;7311947;19;130013;-37
2023/01/31 00:51:59;;;;;;;56.70;5.15;;;;;;;21.05;58.78;99305.16;7312782;19;129545;-39
2023/01/31 00:54:25;;;;;;;24.02;2.20;;;;;;;21.07;59.03;99300.63;7309236;19;131742;-34
2023/01/31 00:56:50;;;;;;;35.58;3.10;;;;;;;21.04;59.20;99321.00;7309790;19;129441;-40
2023/01/31 00:59:15;;;;;;;40.53;3.55;;;;;;;21.06;58.22;99326.88;7312050;19;129266;-39
2023/01/31 01:01:41;;;;;;;57.72;5.50;;;;;;;21.02;58.81;99328.97;7311603;19;128966;-35
2023/01/31 01:04:06;;;;;;;26.75;2.45;;;;;;;20.99;59.14;99339.69;7311553;19;129125;-39
2023/01/31 01:06:32;;;;;;;23.90;2.40;;;;;;;20.98;59.07;99345.88;7308579;19;129835;-38
2023/01/31 01:08:58;;;;;;;42.20;3.77;;;;;;;21.01;59.41;99353.44;7312310;19;129245;-38
2023/01/31 01:11:29;;;;;;;19.30;1.77;;;;;;;21.00;58.85;99361.44;7311955;19;129603;-39
2023/01/31 01:13:56;;;;;;;19.83;2.00;;;;;;;21.05;58.59;99348.75;7310032;19;129577;-40
2023/01/31 01:16:25;;;;;;;;;;;;;;;21.00;59.36;99356.19;7308951;19;130235;-40
2023/01/31 01:18:53;;;;;;;32.42;3.13;;;;;;;20.84;59.24;99351.50;7311340;19;129673;-38
2023/01/31 01:21:27;;;;;;;20.75;2.13;;;;;;;20.72;59.79;99363.09;7314264;19;129502;-38
2023/01/31 01:23:56;;;;;;;24.88;2.42;;;;;;;20.50;58.63;99358.16;7311963;19;129476;-38
2023/01/31 01:26:25;;;;;;;21.38;1.95;;;;;;;20.52;57.81;99377.13;7308044;19;130059;-39
2023/01/31 01:28:51;;;;;;;28.27;2.65;;;;;;;20.47;58.10;99374.13;7311372;19;129697;-37
2023/01/31 01:31:18;;;;;;;100.93;9.43;;;;;;;20.45;59.52;99386.47;7310323;19;131713;-39
2023/01/31 01:33:43;;;;;;;;;;;;;;;20.39;59.60;99398.31;7311590;19;129163;-39
2023/01/31 01:36:20;;;;;;;24.13;2.22;;;;;;;20.43;58.61;99384.00;7310059;19;129096;-40
2023/01/31 01:38:46;;;;;;;25.13;2.23;;;;;;;20.41;59.04;99391.16;7310936;19;129762;-39
2023/01/31 01:41:13;;;;;;;31.27;3.27;;;;;;;20.45;59.50;99381.25;7312587;19;129635;-38
2023/01/31 01:43:49;;;;;;;31.85;3.00;;;;;;;20.48;59.62;99399.25;7308768;19;129152;-38
2023/01/31 01:46:38;;;;;;;18.40;1.77;;;;;;;20.44;59.66;99400.50;7309878;19;130291;-40
2023/01/31 01:49:10;;;;;;;16.60;1.67;;;;;;;20.48;58.58;99394.03;7309366;19;131882;-40
2023/01/31 01:51:38;;;;;;;23.02;2.25;;;;;;;20.50;59.24;99394.72;7311464;19;128744;-39
2023/01/31 01:54:08;;;;;;;24.52;2.20;;;;;;;20.52;59.76;99398.88;7307135;19;129157;-39
2023/01/31 01:56:38;;;;;;;30.38;2.58;;;;;;;20.54;60.63;99412.59;7308471;19;129267;-37
2023/01/31 01:59:14;;;;;;;28.08;2.53;;;;;;;20.58;61.23;99415.75;7312035;19;129548;-36
2023/01/31 02:01:39;;;;;;;22.60;2.33;;;;;;;20.64;60.38;99423.06;7311206;19;129237;-41
2023/01/31 02:04:08;;;;;;;26.00;2.53;;;;;;;20.67;59.84;99428.84;7311603;19;129747;-40
2023/01/31 02:06:33;;;;;;;34.22;3.10;;;;;;;20.69;60.36;99431.31;7305527;19;129111;-38
2023/01/31 02:08:59;;;;;;;51.88;4.72;;;;;;;20.63;60.23;99413.56;7310932;19;129714;-39
2023/01/31 02:11:28;;;;;;;25.50;2.27;;;;;;;20.72;60.40;99420.56;7311101;19;129713;-35
2023/01/31 02:14:20;;;;;;;24.48;2.25;;;;;;;20.78;60.56;99420.00;7308914;19;130047;-39
2023/01/31 02:16:45;;;;;;;36.15;3.33;;;;;;;20.83;59.98;99404.75;7305988;19;129241;-38
2023/01/31 02:19:24;;;;;;;30.35;2.92;;;;;;;20.93;60.00;99408.19;7310212;19;130354;-40
2023/01/31 02:22:20;;;;;;;74.53;7.20;;;;;;;20.90;60.39;99424.13;7309423;19;130160;-40
2023/01/31 02:24:51;;;;;;;32.55;3.33;;;;;;;20.78;60.22;99425.25;7308553;19;130250;-41
2023/01/31 02:27:48;;;;;;;38.80;3.45;;;;;;;20.86;59.54;99432.41;7308313;19;129764;-37
2023/01/31 02:30:15;;;;;;;29.48;2.50;;;;;;;20.85;59.07;99436.78;7311359;19;131736;-39
2023/01/31 02:32:54;;;;;;;71.35;6.50;;;;;;;20.86;60.25;99451.50;7307028;19;129135;-36
2023/01/31 02:35:29;;;;;;;20.67;2.15;;;;;;;20.84;60.19;99456.03;7308866;19;128877;-40
2023/01/31 02:38:12;;;;;;;72.47;6.97;;;;;;;20.84;59.72;99471.72;7307049;19;130922;-38
2023/01/31 02:40:41;;;;;;;34.40;3.45;;;;;;;20.84;59.35;99458.63;7310672;19;129210;-37
2023/01/31 02:44:57;;;;;;;66.90;6.20;;;;;;;20.85;60.31;99468.16;7307901;19;130124;-37
2023/01/31 02:46:27;;;;;;;27.05;2.78;;;;;;;20.85;60.15;99456.88;7306997;19;129859;-38
2023/01/31 02:49:36;;;;;;;28.02;2.72;;;;;;;20.84;60.25;99450.81;7307348;19;129560;-39
2023/01/31 02:52:17;;;;;;;30.75;2.63;;;;;;;20.88;59.83;99459.19;7310022;19;129423;-38
2023/01/31 02:58:08;;;;;;;36.15;3.33;;;;;;;20.90;58.76;99476.41;7308882;19;129736;-40
2023/01/31 03:00:37;;;;;;;21.08;1.92;;;;;;;20.90;59.14;99476.41;7307215;19;129791;-37
2023/01/31 03:03:06;;;;;;;31.02;2.97;;;;;;;20.90;59.16;99497.31;7310360;19;130807;-39
2023/01/31 03:05:32;;;;;;;70.22;6.85;;;;;;;20.90;58.69;99491.25;7304734;19;130131;-38
2023/01/31 03:08:03;;;;;;;17.90;1.63;;;;;;;20.89;59.77;99495.63;7308336;19;129538;-38
2023/01/31 03:10:54;;;;;;;33.67;3.03;;;;;;;20.92;60.02;99499.78;7310756;19;130139;-40
2023/01/31 03:13:56;;;;;;;43.28;4.07;;;;;;;20.91;59.41;99514.63;7305656;19;129354;-39
2023/01/31 03:19:31;;;;;;;32.85;3.10;;;;;;;20.88;59.67;99527.97;7308375;19;129098;-40
2023/01/31 03:22:06;;;;;;;22.73;2.17;;;;;;;20.87;59.22;99528.94;7307410;19;130630;-41
2023/01/31 03:24:33;;;;;;;27.45;2.53;;;;;;;20.85;59.17;99535.25;7308013;19;129488;-40
2023/01/31 03:27:01;;;;;;;23.00;2.10;;;;;;;20.85;59.23;99541.31;7303932;19;129621;-39
2023/01/31 03:29:28;;;;;;;27.17;2.50;;;;;;;20.83;58.88;99538.00;7312622;19;129160;-40
2023/01/31 03:32:27;;;;;;;10.75;1.00;;;;;;;20.85;60.09;99557.00;7319935;19;130120;-41
2023/01/31 03:34:53;;;;;;;;;;;;;;;20.89;59.63;99554.94;7320967;19;129669;-39
2023/01/31 03:37:35;;;;;;;32.65;3.25;;;;;;;20.83;59.87;99556.28;7320151;19;130332;-39
2023/01/31 03:40:26;;;;;;;14.85;1.38;;;;;;;20.82;59.53;99544.19;7323325;19;129536;-40
2023/01/31 03:43:20;;;;;;;37.45;3.20;;;;;;;20.84;60.25;99554.50;7317859;19;129095;-39
2023/01/31 03:45:53;;;;;;;36.92;3.55;;;;;;;20.81;59.96;99554.78;7319480;19;130581;-38
2023/01/31 03:48:21;;;;;;;29.70;2.55;;;;;;;20.82;59.02;99562.50;7317713;19;130185;-40
2023/01/31 03:50:52;;;;;;;30.45;3.10;;;;;;;20.80;60.10;99553.97;7321316;19;129388;-39
2023/01/31 03:53:31;;;;;;;20.15;1.95;;;;;;;20.84;59.74;99560.53;7320915;19;129939;-40
2023/01/31 03:56:03;;;;;;;22.98;2.17;;;;;;;20.83;59.96;99553.69;7319212;19;129476;-40
2023/01/31 03:58:33;;;;;;;43.50;3.72;;;;;;;20.83;59.36;99564.13;7319544;19;128881;-39
2023/01/31 04:01:01;;;;;;;26.35;2.42;;;;;;;20.84;59.38;99562.34;7321238;19;129304;-41
2023/01/31 04:03:41;;;;;;;36.92;3.38;;;;;;;20.84;60.07;99571.00;7321344;19;129177;-40
2023/01/31 04:06:08;;;;;;;35.45;3.17;;;;;;;20.79;59.09;99551.47;7319848;19;130571;-39
2023/01/31 04:08:33;;;;;;;21.83;1.83;;;;;;;20.81;59.23;99555.59;7320630;19;129305;-37
2023/01/31 04:11:04;;;;;;;8.00;0.90;;;;;;;20.83;59.36;99569.34;7323177;19;129650;-39
2023/01/31 04:13:29;;;;;;;32.50;3.28;;;;;;;20.86;59.30;99569.09;7317865;19;129258;-38
2023/01/31 04:15:56;;;;;;;43.40;3.90;;;;;;;20.85;59.62;99567.44;7318585;19;131899;-40
2023/01/31 04:18:21;;;;;;;17.25;1.83;;;;;;;20.87;58.93;99575.16;7322283;19;130993;-40
2023/01/31 04:20:46;;;;;;;28.40;2.63;;;;;;;20.89;58.73;99570.63;7321306;19;129031;-39
2023/01/31 04:23:12;;;;;;;30.02;2.70;;;;;;;20.78;58.88;99553.25;7315175;19;129392;-39
2023/01/31 04:25:37;;;;;;;33.38;2.92;;;;;;;20.88;59.17;99588.06;7317268;19;129497;-38
2023/01/31 04:28:03;;;;;;;24.65;2.30;;;;;;;20.88;58.51;99577.63;7321362;19;129646;-40
2023/01/31 04:30:28;;;;;;;43.53;4.20;;;;;;;20.86;59.13;99589.19;7317210;19;129537;-39
2023/01/31 04:32:54;;;;;;;37.25;3.10;;;;;;;20.87;58.89;99590.81;7319603;19;129150;-38
2023/01/31 04:35:19;;;;;;;32.58;3.28;;;;;;;20.80;59.37;99587.94;7317111;19;129468;-39
2023/01/31 04:37:44;;;;;;;31.33;2.77;;;;;;;20.83;58.95;99605.94;7318595;19;129383;-40
2023/01/31 04:40:12;;;;;;;26.98;2.42;;;;;;;20.82;59.65;99604.31;7317548;19;130102;-40
2023/01/31 04:42:38;;;;;;;34.67;3.20;;;;;;;20.78;59.09;99592.44;7312765;19;130117;-38
2023/01/31 04:45:03;;;;;;;32.28;2.88;;;;;;;20.67;59.56;99584.75;7308535;19;130401;-38
2023/01/31 04:47:29;;;;;;;27.20;2.50;;;;;;;20.79;59.27;99603.75;7311242;19;129626;-41
2023/01/31 04:49:54;;;;;;;33.63;2.90;;;;;;;20.68;59.71;99586.38;7311685;19;129523;-38
2023/01/31 04:52:19;;;;;;;38.90;3.20;;;;;;;20.84;59.55;99607.56;7312548;19;129592;-40
2023/01/31 04:54:45;;;;;;;38.60;3.70;;;;;;;20.87;59.47;99604.72;7309915;19;129380;-39
2023/01/31 04:57:10;;;;;;;49.67;4.93;;;;;;;20.85;59.50;99597.97;7305105;19;129874;-36
2023/01/31 04:59:35;;;;;;;29.55;3.10;;;;;;;20.78;59.95;99608.13;7312068;19;129020;-39
2023/01/31 05:02:01;;;;;;;49.50;4.40;;;;;;;20.71;58.38;99599.16;7312410;19;129429;-38
2023/01/31 05:04:26;;;;;;;28.05;2.50;;;;;;;20.56;60.41;99593.50;7308727;19;130305;-40
2023/01/31 05:06:52;;;;;;;26.42;2.67;;;;;;;20.65;59.53;99604.94;7308630;19;129435;-40
2023/01/31 05:09:17;;;;;;;21.83;2.25;;;;;;;20.61;60.39;99619.22;7308807;19;129989;-40
2023/01/31 05:11:43;;;;;;;42.70;3.80;;;;;;;20.55;59.10;99623.19;7311867;19;129906;-40
2023/01/31 05:14:08;;;;;;;32.10;3.15;;;;;;;20.52;59.68;99617.41;7311526;19;129619;-38
2023/01/31 05:16:34;;;;;;;23.35;2.00;;;;;;;20.46;60.94;99612.72;7309305;19;129161;-37
2023/01/31 05:18:59;;;;;;;29.38;2.60;;;;;;;20.44;59.03;99617.25;7307304;19;130408;-39
2023/01/31 05:21:25;;;;;;;24.70;2.25;;;;;;;20.37;59.32;99614.34;7312587;19;131347;-40
2023/01/31 05:23:50;;;;;;;39.58;3.83;;;;;;;20.26;60.18;99608.38;7307065;19;130103;-39
2023/01/31 05:26:15;;;;;;;17.80;1.80;;;;;;;20.33;59.11;99622.53;7309564;19;130057;-37
2023/01/31 05:28:41;;;;;;;45.15;4.28;;;;;;;20.34;58.64;99639.88;7306834;19;129633;-40
2023/01/31 05:31:07;;;;;;;30.92;2.75;;;;;;;20.34;60.04;99634.66;7307336;19;129645;-40
2023/01/31 05:33:33;;;;;;;24.20;2.43;;;;;;;20.33;60.79;99635.59;7304150;19;130293;-41
2023/01/31 05:35:59;;;;;;;26.70;2.47;;;;;;;20.34;60.25;99645.09;7304883;19;131332;-40
2023/01/31 05:38:25;;;;;;;35.10;3.20;;;;;;;20.29;59.67;99637.66;7310139;19;129706;-39
2023/01/31 05:40:50;;;;;;;69.65;6.80;;;;;;;20.30;60.43;99651.53;7308184;19;130174;-37
2023/01/31 05:43:16;;;;;;;25.92;2.60;;;;;;;20.31;60.48;99640.94;7309505;19;130613;-39
2023/01/31 05:45:42;;;;;;;28.90;2.90;;;;;;;20.32;60.63;99639.16;7308281;19;129315;-40
2023/01/31 05:48:07;;;;;;;45.27;4.10;;;;;;;20.30;59.16;99647.13;7305621;19;130193;-39
2023/01/31 05:50:33;;;;;;;42.05;3.80;;;;;;;20.30;59.22;99634.06;7296053;19;130220;-39
2023/01/31 05:52:59;;;;;;;57.22;4.72;;;;;;;20.31;58.95;99629.69;7299011;19;130793;-36
2023/01/31 05:55:26;;;;;;;68.22;7.00;;;;;;;20.41;57.82;99630.56;7301289;19;129315;-36
2023/01/31 05:57:54;;;;;;;63.15;5.38;;;;;;;20.42;58.25;99633.03;7301872;19;129481;-38
2023/01/31 06:00:20;;;;;;;38.78;4.22;;;;;;;20.48;57.22;99636.91;7304195;19;130599;-38
2023/01/31 06:02:47;;;;;;;54.60;5.13;;;;;;;20.58;56.66;99616.88;7300510;19;131042;-40
2023/01/31 06:05:13;;;;;;;157.73;14.73;;;;;;;20.54;56.74;99625.94;7299985;19;131097;-38
2023/01/31 06:07:39;;;;;;;94.03;8.20;;;;;;;20.61;57.82;99632.25;7297742;19;130254;-38
2023/01/31 06:10:05;;;;;;;48.47;4.18;;;;;;;20.63;55.70;99636.41;7304547;19;131236;-37
2023/01/31 06:12:31;;;;;;;;;;;;;;;20.68;58.30;99629.00;7299486;19;130914;-39
2023/01/31 06:14:56;;;;;;;48.08;4.30;;;;;;;20.60;56.49;99630.63;7302104;19;130121;-38
2023/01/31 06:17:24;;;;;;;51.78;4.93;;;;;;;20.63;55.23;99630.34;7303462;19;129285;-37
2023/01/31 06:19:50;;;;;;;50.67;4.60;;;;;;;20.67;55.96;99636.97;7298494;19;130448;-36
2023/01/31 06:22:16;;;;;;;50.03;4.73;;;;;;;20.63;55.18;99633.81;7302814;19;131115;-38
2023/01/31 06:24:41;;;;;;;49.00;4.70;;;;;;;20.61;56.23;99632.25;7298614;19;130134;-37
2023/01/31 06:27:06;;;;;;;140.55;13.30;;;;;;;20.56;57.85;99619.63;7296702;19;129563;-38
2023/01/31 06:29:32;;;;;;;60.15;5.75;;;;;;;20.66;56.34;99637.91;7294854;19;129662;-40
2023/01/31 06:31:57;;;;;;;40.90;4.35;;;;;;;20.63;56.56;99646.03;7296480;19;129617;-39
2023/01/31 06:34:22;;;;;;;58.60;4.80;;;;;;;20.61;55.22;99640.09;7301398;19;130394;-39
2023/01/31 06:36:48;;;;;;;57.65;4.93;;;;;;;20.53;55.67;99622.50;7297672;19;129922;-40
2023/01/31 06:39:13;;;;;;;24.38;2.53;;;;;;;20.59;56.22;99652.50;7302840;19;129502;-40
2023/01/31 06:41:39;;;;;;;42.90;4.90;;;;;;;20.54;56.58;99641.63;7303732;19;130036;-38
2023/01/31 06:44:04;;;;;;;39.65;3.72;;;;;;;20.67;57.18;99663.09;7307507;19;129780;-36
2023/01/31 06:46:30;;;;;;;35.17;3.95;;;;;;;20.72;57.22;99655.69;7304190;19;130529;-39
2023/01/31 06:48:55;;;;;;;66.00;5.72;;;;;;;20.69;56.94;99648.13;7301232;19;129265;-38
2023/01/31 06:51:21;;;;;;;14.48;1.60;;;;;;;20.72;56.68;99646.06;7309620;19;130425;-38
2023/01/31 06:53:46;;;;;;;39.45;3.45;;;;;;;20.67;57.03;99640.44;7306597;19;130492;-39
2023/01/31 06:56:12;;;;;;;39.83;3.88;;;;;;;20.73;56.99;99646.88;7307347;19;130269;-38
2023/01/31 06:58:37;;;;;;;43.75;4.55;;;;;;;20.74;57.63;99643.34;7305398;19;130554;-37
2023/01/31 07:01:07;;;;;;;28.17;2.70;;;;;;;20.79;58.30;99646.38;7305877;19;130933;-41
2023/01/31 07:03:32;;;;;;;42.60;4.03;;;;;;;20.85;57.18;99658.06;7308077;19;130360;-38
2023/01/31 07:05:58;;;;;;;28.85;2.95;;;;;;;20.87;57.37;99664.81;7301946;19;129440;-40
2023/01/31 07:08:23;;;;;;;28.33;3.08;;;;;;;20.88;57.57;99656.00;7309552;19;129506;-37
2023/01/31 07:10:49;;;;;;;70.47;6.93;;;;;;;20.84;57.21;99659.03;7307734;19;129958;-38
2023/01/31 07:13:14;;;;;;;34.00;2.97;;;;;;;20.85;57.95;99671.97;7309465;19;128915;-39
2023/01/31 07:15:40;;;;;;;42.83;4.37;;;;;;;20.83;57.06;99686.94;7304858;19;131682;-37
2023/01/31 07:18:06;;;;;;;27.83;2.80;;;;;;;20.79;58.26;99677.72;7306015;19;129214;-39
2023/01/31 07:20:31;;;;;;;22.00;2.20;;;;;;;20.84;57.41;99675.53;7310317;19;129526;-40
2023/01/31 07:22:58;;;;;;;34.88;3.40;;;;;;;20.87;57.72;99680.50;7306666;19;129186;-39
2023/01/31 07:25:24;;;;;;;56.78;6.28;;;;;;;20.83;57.42;99668.66;7308355;19;129522;-38
2023/01/31 07:27:49;;;;;;;28.80;2.67;;;;;;;20.90;58.34;99680.22;7307581;19;129409;-40
2023/01/31 07:30:15;;;;;;;43.55;4.03;;;;;;;20.87;57.67;99670.06;7309171;19;129736;-39
2023/01/31 07:32:40;;;;;;;33.78;3.35;;;;;;;20.90;58.23;99680.22;7308820;19;129994;-39
2023/01/31 07:35:06;;;;;;;23.03;2.43;;;;;;;20.87;58.18;99677.91;7306341;19;129123;-39
2023/01/31 07:37:31;;;;;;;32.17;3.07;;;;;;;20.86;58.96;99683.25;7306815;19;130087;-39
2023/01/31 07:39:57;;;;;;;35.30;3.57;;;;;;;20.84;58.04;99691.19;7308126;19;130290;-39
2023/01/31 07:42:22;;;;;;;24.70;2.33;;;;;;;20.76;58.88;99672.75;7309482;19;129121;-40
2023/01/31 07:44:47;;;;;;;25.67;2.75;;;;;;;20.83;58.20;99694.78;7308104;19;129186;-39
2023/01/31 07:47:13;;;;;;;20.35;2.60;;;;;;;20.81;57.85;99686.25;7303812;19;129722;-39
2023/01/31 07:49:38;;;;;;;34.15;3.03;;;;;;;20.88;58.73;99691.75;7308588;19;129263;-38
2023/01/31 07:52:03;;;;;;;45.80;3.92;;;;;;;20.85;58.02;99692.88;7308035;19;129154;-38
2023/01/31 07:54:29;;;;;;;22.23;2.45;;;;;;;20.79;59.42;99688.19;7307507;19;129496;-37
2023/01/31 07:56:54;;;;;;;19.23;2.08;;;;;;;20.82;58.89;99669.63;7304740;19;130013;-37
2023/01/31 07:59:19;;;;;;;36.75;3.58;;;;;;;20.83;58.45;99689.56;7307740;19;129748;-39
2023/01/31 08:04:28;;;;;;;20.55;1.98;;;;;;;20.84;58.42;99678.13;7307848;19;129399;-39
2023/01/31 08:06:55;;;;;;;23.58;2.20;;;;;;;20.79;58.87;99688.19;7303869;19;129303;-39
2023/01/31 08:09:21;;;;;;;43.00;3.77;;;;;;;20.67;59.12;99657.88;7305954;19;130400;-39
2023/01/31 08:11:46;;;;;;;38.05;3.72;;;;;;;20.79;58.91;99687.34;7308121;19;129132;-38
2023/01/31 08:14:12;;;;;;;22.02;2.55;;;;;;;20.83;58.98;99691.34;7307051;19;130227;-37
2023/01/31 08:16:38;;;;;;;28.63;2.85;;;;;;;20.79;58.89;99697.78;7308617;19;129150;-39
2023/01/31 08:19:04;;;;;;;30.17;2.95;;;;;;;20.80;58.43;99689.00;7313693;19;130997;-37
2023/01/31 08:21:29;;;;;;;22.35;2.13;;;;;;;20.85;58.58;99692.88;7315225;19;130298;-40
2023/01/31 08:23:55;;;;;;;29.15;2.78;;;;;;;20.81;58.29;99686.25;7314842;19;129726;-41
2023/01/31 08:26:21;;;;;;;21.58;2.17;;;;;;;20.85;57.89;99687.63;7311960;19;130658;-37
2023/01/31 08:28:48;;;;;;;41.00;4.20;;;;;;;20.83;58.11;99688.72;7313279;19;129671;-39
2023/01/31 08:31:15;;;;;;;;;;;;;;;20.83;59.14;99689.56;7316056;19;129208;-40
2023/01/31 08:33:40;;;;;;;29.73;3.00;;;;;;;20.82;58.49;99693.13;7314413;19;130316;-38
2023/01/31 08:36:17;;;;;;;23.92;2.47;;;;;;;20.69;59.02;99676.88;7310083;19;131547;-40
2023/01/31 08:38:43;;;;;;;27.50;2.70;;;;;;;20.85;58.65;99692.03;7311266;19;129092;-37
2023/01/31 08:41:09;;;;;;;29.37;2.97;;;;;;;20.81;59.10;99681.00;7313809;19;129599;-39
2023/01/31 08:43:36;;;;;;;29.00;3.03;;;;;;;20.78;59.56;99683.91;7314533;19;129099;-39
2023/01/31 08:46:02;;;;;;;20.98;2.17;;;;;;;20.76;59.57;99685.81;7311539;19;130266;-37
2023/01/31 08:48:28;;;;;;;28.87;2.53;;;;;;;20.76;59.41;99685.00;7312607;19;129744;-38
2023/01/31 08:50:53;;;;;;;37.25;3.50;;;;;;;20.77;59.28;99689.25;7313324;19;128861;-39
2023/01/31 08:53:18;;;;;;;39.00;4.00;;;;;;;20.73;58.41;99684.31;7311202;19;129245;-37
2023/01/31 08:55:44;;;;;;;31.63;2.88;;;;;;;20.79;58.44;99682.97;7309971;19;129153;-40
2023/01/31 08:58:09;;;;;;;36.47;3.50;;;;;;;20.76;59.20;99685.81;7311707;19;129083;-37
2023/01/31 09:00:34;;;;;;;33.85;3.22;;;;;;;20.76;59.20;99683.19;7314136;19;129276;-38
2023/01/31 09:03:00;;;;;;;75.57;6.80;;;;;;;20.77;58.46;99679.66;7311901;19;129804;-39
2023/01/31 09:05:28;;;;;;;29.98;3.10;;;;;;;20.82;58.41;99676.63;7309642;19;129294;-38
2023/01/31 09:07:53;;;;;;;37.35;3.30;;;;;;;20.76;58.37;99672.75;7312866;19;129156;-39
2023/01/31 09:10:20;;;;;;;34.45;3.35;;;;;;;20.76;59.17;99677.97;7314101;19;128879;-38
2023/01/31 09:12:46;;;;;;;29.67;3.10;;;;;;;20.64;59.18;99658.16;7310955;19;129761;-39
2023/01/31 09:15:11;;;;;;;26.75;2.65;;;;;;;20.71;59.82;99669.69;7310976;19;129596;-38
2023/01/31 09:17:38;;;;;;;30.83;2.85;;;;;;;20.72;59.24;99674.78;7309545;19;130212;-40
2023/01/31 09:20:05;;;;;;;15.50;1.73;;;;;;;20.73;59.08;99673.00;7313218;19;129295;-38
2023/01/31 09:22:34;;;;;;;20.13;2.30;;;;;;;20.67;59.28;99674.38;7310784;19;129077;-40
2023/01/31 09:25:00;;;;;;;24.75;2.42;;;;;;;20.68;58.83;99665.59;7312079;19;129517;-39
2023/01/31 09:27:26;;;;;;;66.20;6.32;;;;;;;20.71;59.90;99667.09;7306638;19;129975;-37
2023/01/31 09:29:51;;;;;;;20.35;1.75;;;;;;;20.69;59.81;99664.59;7313422;19;129108;-37
2023/01/31 09:32:18;;;;;;;28.95;2.78;;;;;;;20.68;59.37;99646.47;7312363;19;129453;-39
2023/01/31 09:34:45;;;;;;;32.55;3.22;;;;;;;20.59;59.38;99644.66;7308659;19;131670;-38
2023/01/31 09:37:11;;;;;;;31.98;2.80;;;;;;;20.72;59.21;99655.69;7309125;19;130340;-40
2023/01/31 09:39:36;;;;;;;57.00;5.55;;;;;;;20.73;59.45;99668.63;7312455;19;129251;-39
2023/01/31 09:42:21;;;;;;;21.63;2.08;;;;;;;20.74;60.01;99659.00;7311687;19;129919;-39
2023/01/31 09:44:55;;;;;;;17.98;1.98;;;;;;;20.71;59.38;99665.31;7310970;19;130161;-38
2023/01/31 09:47:27;;;;;;;21.27;2.13;;;;;;;20.73;59.35;99654.72;7305576;19;129993;-39
2023/01/31 09:50:01;;;;;;;29.58;2.63;;;;;;;20.72;60.01;99651.28;7312026;19;129392;-40
2023/01/31 09:52:29;;;;;;;35.83;3.20;;;;;;;20.68;59.31;99646.47;7311706;19;130782;-39
2023/01/31 09:54:54;;;;;;;24.52;2.38;;;;;;;20.67;59.60;99642.22;7309823;19;130597;-39
2023/01/31 09:57:41;;;;;;;47.65;4.85;;;;;;;20.70;60.21;99624.47;7306742;19;129141;-39
2023/01/31 10:00:25;;;;;;;23.23;2.25;;;;;;;20.69;60.15;99640.28;7311766;19;128979;-39
2023/01/31 10:02:58;;;;;;;26.05;2.55;;;;;;;20.66;59.97;99611.81;7311128;19;129362;-39
2023/01/31 10:05:41;;;;;;;40.20;4.20;;;;;;;20.56;59.77;99608.38;7307850;19;130433;-39
2023/01/31 10:08:24;;;;;;;41.25;3.60;;;;;;;20.64;60.32;99627.59;7310996;19;129047;-40
2023/01/31 10:11:02;;;;;;;41.65;3.83;;;;;;;20.67;59.89;99618.69;7310545;19;129299;-40
2023/01/31 10:13:35;;;;;;;29.63;2.67;;;;;;;20.69;59.26;99616.78;7309570;19;128992;-38
2023/01/31 10:16:27;;;;;;;35.28;3.17;;;;;;;20.73;60.11;99611.16;7307505;19;130158;-39
2023/01/31 10:19:04;;;;;;;45.47;4.03;;;;;;;20.67;59.65;99610.84;7310947;19;130670;-39
2023/01/31 10:21:38;;;;;;;32.88;3.17;;;;;;;20.69;59.87;99622.81;7312174;19;128939;-38
2023/01/31 10:24:20;;;;;;;32.55;2.75;;;;;;;20.65;60.08;99607.53;7309563;19;129044;-37
2023/01/31 10:26:50;;;;;;;35.88;3.55;;;;;;;20.64;59.64;99616.34;7307144;19;129363;-39
2023/01/31 10:29:38;;;;;;;18.55;2.03;;;;;;;20.66;60.32;99617.03;7308002;19;129783;-39
2023/01/31 10:32:13;;;;;;;22.85;2.10;;;;;;;20.64;60.04;99609.31;7310816;19;131498;-39
2023/01/31 10:34:54;;;;;;;30.30;3.08;;;;;;;20.58;59.59;99603.81;7309012;19;129845;-38
2023/01/31 10:37:27;;;;;;;45.47;4.45;;;;;;;20.56;60.36;99603.13;7306828;19;130039;-38
2023/01/31 10:39:57;;;;;;;36.13;3.42;;;;;;;20.61;59.66;99601.75;7310094;19;129125;-38
2023/01/31 10:42:31;;;;;;;26.55;2.55;;;;;;;20.53;60.09;99583.31;7310767;19;129968;-40
2023/01/31 10:45:17;;;;;;;18.33;2.05;;;;;;;20.61;60.00;99600.91;7309720;19;129927;-39
2023/01/31 10:47:51;;;;;;;27.65;2.78;;;;;;;20.54;60.11;99586.75;7308664;19;130337;-39
2023/01/31 10:50:20;;;;;;;19.90;2.00;;;;;;;20.60;60.31;99581.00;7309200;19;129764;-39
2023/01/31 10:53:03;;;;;;;32.53;2.92;;;;;;;20.64;60.21;99579.78;7309197;19;129157;-39
2023/01/31 10:55:28;;;;;;;70.45;6.88;;;;;;;20.61;59.58;99565.19;7306498;19;129803;-40
2023/01/31 10:57:55;;;;;;;33.67;3.10;;;;;;;20.64;59.43;99564.09;7309972;19;131397;-39
2023/01/31 11:00:30;;;;;;;38.72;3.65;;;;;;;20.51;59.66;99547.88;7308804;19;130485;-39
2023/01/31 11:02:57;;;;;;;31.83;3.03;;;;;;;20.64;59.21;99574.56;7309185;19;128833;-39
2023/01/31 11:05:24;;;;;;;;;;;;;;;20.64;60.08;99569.34;7308525;19;129086;-38
2023/01/31 11:07:49;;;;;;;27.80;2.65;;;;;;;20.56;60.29;99556.13;7309285;19;129713;-39
2023/01/31 11:10:27;;;;;;;22.88;2.17;;;;;;;20.44;60.02;99531.06;7312297;19;130391;-39
2023/01/31 11:13:03;;;;;;;48.70;5.13;;;;;;;20.52;60.62;99545.13;7308003;19;129039;-40
2023/01/31 11:15:35;;;;;;;61.88;6.47;;;;;;;20.55;60.28;99538.78;7306550;19;129190;-41
2023/01/31 11:18:01;;;;;;;25.38;2.38;;;;;;;20.57;60.44;99542.94;7309825;19;130493;-39
2023/01/31 11:20:28;;;;;;;34.07;2.90;;;;;;;20.53;60.46;99533.69;7308315;19;130351;-40
2023/01/31 11:22:55;;;;;;;38.70;3.70;;;;;;;20.55;59.95;99531.78;7308541;19;130105;-39
2023/01/31 11:25:22;;;;;;;28.73;2.97;;;;;;;20.52;60.13;99526.84;7306897;19;129063;-37
2023/01/31 11:27:54;;;;;;;28.42;2.80;;;;;;;20.53;59.53;99514.56;7307811;19;130783;-37
2023/01/31 11:30:24;;;;;;;27.35;2.55;;;;;;;20.52;60.53;99508.56;7308632;19;130156;-40
2023/01/31 11:32:50;;;;;;;34.47;3.10;;;;;;;20.53;60.15;99504.13;7307700;19;129260;-36
2023/01/31 11:35:15;;;;;;;25.60;2.43;;;;;;;20.54;59.88;99501.38;7306394;19;129298;-39
2023/01/31 11:38:10;;;;;;;25.33;2.63;;;;;;;20.51;60.44;99499.03;7306294;19;131313;-40